sensor_id;sensor_type;location;lat;lon;timestamp;pressure;altitude;pressure_sealevel;temperature;humidity
84865;BME280;75122;41.650;25.368;2024-03-02T00:00:10;98125.84;;;8.61;70.68
84865;BME280;75122;41.650;25.368;2024-03-02T00:05:07;98131.78;;;8.45;71.10
84865;BME280;75122;41.650;25.368;2024-03-02T00:07:33;98130.50;;;8.47;70.41
84865;BME280;75122;41.650;25.368;2024-03-02T00:09:59;98139.53;;;8.21;71.59
84865;BME280;75122;41.650;25.368;2024-03-02T00:12:25;98138.94;;;8.03;72.37
84865;BME280;75122;41.650;25.368;2024-03-02T00:14:51;98131.75;;;7.93;73.65
84865;BME280;75122;41.650;25.368;2024-03-02T00:17:24;98126.41;;;7.60;74.14
84865;BME280;75122;41.650;25.368;2024-03-02T00:19:51;98132.25;;;7.67;74.65
84865;BME280;75122;41.650;25.368;2024-03-02T00:22:16;98131.13;;;7.63;75.31
84865;BME280;75122;41.650;25.368;2024-03-02T00:24:42;98125.41;;;7.72;74.48
84865;BME280;75122;41.650;25.368;2024-03-02T00:27:08;98127.97;;;7.84;73.83
84865;BME280;75122;41.650;25.368;2024-03-02T00:29:36;98119.41;;;7.95;72.16
84865;BME280;75122;41.650;25.368;2024-03-02T00:32:02;98124.88;;;8.10;71.04
84865;BME280;75122;41.650;25.368;2024-03-02T00:34:28;98129.34;;;8.15;70.94
84865;BME280;75122;41.650;25.368;2024-03-02T00:36:57;98126.53;;;8.16;71.36
84865;BME280;75122;41.650;25.368;2024-03-02T00:39:25;98125.88;;;8.21;70.40
84865;BME280;75122;41.650;25.368;2024-03-02T00:41:50;98127.19;;;8.23;71.33
84865;BME280;75122;41.650;25.368;2024-03-02T00:44:16;98127.97;;;8.24;71.49
84865;BME280;75122;41.650;25.368;2024-03-02T00:46:45;98123.03;;;8.22;70.13
84865;BME280;75122;41.650;25.368;2024-03-02T00:51:36;98118.97;;;8.26;70.72
84865;BME280;75122;41.650;25.368;2024-03-02T00:54:04;98118.53;;;8.29;70.92
84865;BME280;75122;41.650;25.368;2024-03-02T00:56:30;98121.00;;;8.36;70.23
84865;BME280;75122;41.650;25.368;2024-03-02T00:58:56;98124.06;;;8.33;71.18
84865;BME280;75122;41.650;25.368;2024-03-02T01:01:21;98124.06;;;8.33;70.80
84865;BME280;75122;41.650;25.368;2024-03-02T01:03:48;98118.34;;;8.19;70.73
84865;BME280;75122;41.650;25.368;2024-03-02T01:06:14;98127.22;;;8.12;70.79
84865;BME280;75122;41.650;25.368;2024-03-02T01:08:40;98116.09;;;8.11;70.35
84865;BME280;75122;41.650;25.368;2024-03-02T01:11:05;98118.00;;;8.16;70.09
84865;BME280;75122;41.650;25.368;2024-03-02T01:13:31;98113.47;;;8.23;70.65
84865;BME280;75122;41.650;25.368;2024-03-02T01:15:56;98102.28;;;8.29;70.49
84865;BME280;75122;41.650;25.368;2024-03-02T01:18:22;98103.03;;;8.29;69.84
84865;BME280;75122;41.650;25.368;2024-03-02T01:20:48;98101.66;;;8.27;70.85
84865;BME280;75122;41.650;25.368;2024-03-02T01:23:17;98106.06;;;8.26;71.76
84865;BME280;75122;41.650;25.368;2024-03-02T01:25:42;98113.69;;;8.21;71.19
84865;BME280;75122;41.650;25.368;2024-03-02T01:28:08;98114.28;;;8.23;71.58
84865;BME280;75122;41.650;25.368;2024-03-02T01:30:33;98116.75;;;8.18;71.92
84865;BME280;75122;41.650;25.368;2024-03-02T01:33:00;98117.31;;;8.20;73.02
84865;BME280;75122;41.650;25.368;2024-03-02T01:35:27;98114.63;;;8.15;72.29
84865;BME280;75122;41.650;25.368;2024-03-02T01:37:53;98110.38;;;8.09;72.03
84865;BME280;75122;41.650;25.368;2024-03-02T01:40:19;98103.25;;;7.88;73.39
84865;BME280;75122;41.650;25.368;2024-03-02T01:42:45;98104.56;;;8.02;72.54
84865;BME280;75122;41.650;25.368;2024-03-02T01:45:11;98093.84;;;8.10;72.84
84865;BME280;75122;41.650;25.368;2024-03-02T01:47:36;98091.84;;;8.12;71.51
84865;BME280;75122;41.650;25.368;2024-03-02T01:50:02;98087.31;;;8.19;70.96
84865;BME280;75122;41.650;25.368;2024-03-02T01:52:27;98094.44;;;8.12;71.49
84865;BME280;75122;41.650;25.368;2024-03-02T01:54:53;98090.06;;;8.13;72.48
84865;BME280;75122;41.650;25.368;2024-03-02T01:57:19;98094.13;;;7.97;73.46
84865;BME280;75122;41.650;25.368;2024-03-02T01:59:45;98100.28;;;8.08;72.73
84865;BME280;75122;41.650;25.368;2024-03-02T02:02:13;98095.91;;;8.08;71.89
84865;BME280;75122;41.650;25.368;2024-03-02T02:04:38;98095.50;;;7.88;73.16
84865;BME280;75122;41.650;25.368;2024-03-02T02:07:04;98083.38;;;7.77;74.45
84865;BME280;75122;41.650;25.368;2024-03-02T02:09:29;98079.75;;;7.89;73.12
84865;BME280;75122;41.650;25.368;2024-03-02T02:11:55;98080.78;;;7.88;74.05
84865;BME280;75122;41.650;25.368;2024-03-02T02:14:20;98085.81;;;7.95;73.70
84865;BME280;75122;41.650;25.368;2024-03-02T02:16:46;98082.22;;;7.96;73.73
84865;BME280;75122;41.650;25.368;2024-03-02T02:19:11;98088.59;;;8.05;73.15
84865;BME280;75122;41.650;25.368;2024-03-02T02:21:36;98080.41;;;8.08;72.97
84865;BME280;75122;41.650;25.368;2024-03-02T02:24:02;98084.63;;;8.14;73.99
84865;BME280;75122;41.650;25.368;2024-03-02T02:26:29;98089.69;;;8.21;72.51
84865;BME280;75122;41.650;25.368;2024-03-02T02:28:55;98085.28;;;8.21;72.97
84865;BME280;75122;41.650;25.368;2024-03-02T02:31:20;98089.88;;;7.91;75.51
84865;BME280;75122;41.650;25.368;2024-03-02T02:33:46;98091.03;;;7.72;76.27
84865;BME280;75122;41.650;25.368;2024-03-02T02:36:11;98094.06;;;7.80;74.78
84865;BME280;75122;41.650;25.368;2024-03-02T02:38:39;98086.78;;;7.54;76.93
84865;BME280;75122;41.650;25.368;2024-03-02T02:41:06;98084.91;;;7.38;77.13
84865;BME280;75122;41.650;25.368;2024-03-02T02:43:31;98089.50;;;7.47;76.47
84865;BME280;75122;41.650;25.368;2024-03-02T02:45:56;98085.44;;;7.63;75.79
84865;BME280;75122;41.650;25.368;2024-03-02T02:48:22;98092.03;;;7.71;75.14
84865;BME280;75122;41.650;25.368;2024-03-02T02:50:47;98094.94;;;7.86;74.75
84865;BME280;75122;41.650;25.368;2024-03-02T02:53:13;98085.25;;;7.93;74.04
84865;BME280;75122;41.650;25.368;2024-03-02T02:55:39;98074.03;;;7.99;74.62
84865;BME280;75122;41.650;25.368;2024-03-02T02:58:12;98065.69;;;8.09;73.61
84865;BME280;75122;41.650;25.368;2024-03-02T03:00:37;98076.56;;;8.11;73.49
84865;BME280;75122;41.650;25.368;2024-03-02T03:03:03;98079.00;;;8.17;74.72
84865;BME280;75122;41.650;25.368;2024-03-02T03:05:28;98073.41;;;8.20;73.87
84865;BME280;75122;41.650;25.368;2024-03-02T03:07:54;98074.72;;;8.23;73.30
84865;BME280;75122;41.650;25.368;2024-03-02T03:10:19;98073.59;;;8.30;72.98
84865;BME280;75122;41.650;25.368;2024-03-02T03:12:47;98079.88;;;8.34;73.57
84865;BME280;75122;41.650;25.368;2024-03-02T03:15:13;98079.19;;;8.39;74.19
84865;BME280;75122;41.650;25.368;2024-03-02T03:17:39;98079.50;;;8.42;73.66
84865;BME280;75122;41.650;25.368;2024-03-02T03:20:05;98076.00;;;8.49;72.85
84865;BME280;75122;41.650;25.368;2024-03-02T03:22:31;98086.41;;;8.54;71.73
84865;BME280;75122;41.650;25.368;2024-03-02T03:24:57;98087.72;;;8.39;73.04
84865;BME280;75122;41.650;25.368;2024-03-02T03:27:22;98083.66;;;8.43;72.75
84865;BME280;75122;41.650;25.368;2024-03-02T03:29:48;98079.03;;;8.46;74.23
84865;BME280;75122;41.650;25.368;2024-03-02T03:32:14;98080.06;;;8.45;74.75
84865;BME280;75122;41.650;25.368;2024-03-02T03:34:39;98073.31;;;8.43;73.58
84865;BME280;75122;41.650;25.368;2024-03-02T03:37:05;98077.31;;;8.51;72.93
84865;BME280;75122;41.650;25.368;2024-03-02T03:39:31;98077.09;;;8.53;73.80
84865;BME280;75122;41.650;25.368;2024-03-02T03:41:56;98075.75;;;8.50;72.28
84865;BME280;75122;41.650;25.368;2024-03-02T03:44:22;98078.66;;;8.54;72.61
84865;BME280;75122;41.650;25.368;2024-03-02T03:46:47;98075.63;;;8.57;72.49
84865;BME280;75122;41.650;25.368;2024-03-02T03:49:12;98080.28;;;8.43;73.31
84865;BME280;75122;41.650;25.368;2024-03-02T03:51:38;98085.69;;;8.41;74.00
84865;BME280;75122;41.650;25.368;2024-03-02T03:54:03;98080.06;;;8.45;72.82
84865;BME280;75122;41.650;25.368;2024-03-02T03:56:29;98087.16;;;8.37;74.60
84865;BME280;75122;41.650;25.368;2024-03-02T03:58:54;98084.44;;;8.44;73.95
84865;BME280;75122;41.650;25.368;2024-03-02T04:01:19;98081.22;;;8.25;74.57
84865;BME280;75122;41.650;25.368;2024-03-02T04:03:47;98077.31;;;8.23;74.58
84865;BME280;75122;41.650;25.368;2024-03-02T04:06:12;98077.88;;;8.13;75.13
84865;BME280;75122;41.650;25.368;2024-03-02T04:08:38;98079.97;;;8.00;75.67
84865;BME280;75122;41.650;25.368;2024-03-02T04:11:04;98080.34;;;7.91;76.67
84865;BME280;75122;41.650;25.368;2024-03-02T04:13:29;98080.84;;;8.05;74.73
84865;BME280;75122;41.650;25.368;2024-03-02T04:15:55;98080.81;;;8.17;74.68
84865;BME280;75122;41.650;25.368;2024-03-02T04:18:20;98086.69;;;8.12;75.45
84865;BME280;75122;41.650;25.368;2024-03-02T04:20:45;98088.56;;;8.17;74.46
84865;BME280;75122;41.650;25.368;2024-03-02T04:23:11;98094.28;;;8.30;73.54
84865;BME280;75122;41.650;25.368;2024-03-02T04:25:36;98082.56;;;8.39;74.07
84865;BME280;75122;41.650;25.368;2024-03-02T04:28:02;98086.47;;;8.42;73.58
84865;BME280;75122;41.650;25.368;2024-03-02T04:30:27;98088.72;;;8.38;75.11
84865;BME280;75122;41.650;25.368;2024-03-02T04:32:53;98083.47;;;8.33;74.53
84865;BME280;75122;41.650;25.368;2024-03-02T04:35:18;98084.03;;;8.35;74.22
84865;BME280;75122;41.650;25.368;2024-03-02T04:37:44;98088.50;;;8.40;74.66
84865;BME280;75122;41.650;25.368;2024-03-02T04:40:09;98088.50;;;8.40;74.60
84865;BME280;75122;41.650;25.368;2024-03-02T04:42:35;98093.91;;;8.38;74.68
84865;BME280;75122;41.650;25.368;2024-03-02T04:45:01;98099.69;;;8.46;74.53
84865;BME280;75122;41.650;25.368;2024-03-02T04:47:27;98095.47;;;8.39;74.60
84865;BME280;75122;41.650;25.368;2024-03-02T04:49:52;98098.38;;;8.43;74.79
84865;BME280;75122;41.650;25.368;2024-03-02T04:52:18;98103.66;;;8.48;73.93
84865;BME280;75122;41.650;25.368;2024-03-02T04:54:43;98101.91;;;8.54;74.41
84865;BME280;75122;41.650;25.368;2024-03-02T04:57:27;98096.84;;;8.59;74.24
84865;BME280;75122;41.650;25.368;2024-03-02T04:59:53;98091.66;;;8.59;74.83
84865;BME280;75122;41.650;25.368;2024-03-02T05:02:18;98092.25;;;8.61;74.37
84865;BME280;75122;41.650;25.368;2024-03-02T05:04:44;98081.41;;;8.64;73.43
84865;BME280;75122;41.650;25.368;2024-03-02T05:07:09;98080.59;;;8.47;74.76
84865;BME280;75122;41.650;25.368;2024-03-02T05:09:35;98086.19;;;8.55;73.77
84865;BME280;75122;41.650;25.368;2024-03-02T05:12:00;98084.59;;;8.54;74.22
84865;BME280;75122;41.650;25.368;2024-03-02T05:14:45;98084.59;;;8.54;74.20
84865;BME280;75122;41.650;25.368;2024-03-02T05:17:11;98076.84;;;8.54;72.90
84865;BME280;75122;41.650;25.368;2024-03-02T05:19:36;98075.31;;;8.53;74.91
84865;BME280;75122;41.650;25.368;2024-03-02T05:22:02;98088.50;;;8.40;74.87
84865;BME280;75122;41.650;25.368;2024-03-02T05:24:28;98093.91;;;8.38;74.48
84865;BME280;75122;41.650;25.368;2024-03-02T05:26:54;98088.91;;;8.20;77.01
84865;BME280;75122;41.650;25.368;2024-03-02T05:29:19;98077.53;;;8.21;77.19
84865;BME280;75122;41.650;25.368;2024-03-02T05:31:45;98081.34;;;8.30;76.01
84865;BME280;75122;41.650;25.368;2024-03-02T05:34:11;98089.09;;;8.30;75.88
84865;BME280;75122;41.650;25.368;2024-03-02T05:36:36;98099.63;;;8.01;78.55
84865;BME280;75122;41.650;25.368;2024-03-02T05:39:04;98108.59;;;7.98;78.36
84865;BME280;75122;41.650;25.368;2024-03-02T05:41:31;98112.47;;;7.84;78.60
84865;BME280;75122;41.650;25.368;2024-03-02T05:43:57;98120.19;;;7.95;78.04
84865;BME280;75122;41.650;25.368;2024-03-02T05:46:22;98129.06;;;8.00;78.25
84865;BME280;75122;41.650;25.368;2024-03-02T05:48:47;98132.94;;;8.14;76.45
84865;BME280;75122;41.650;25.368;2024-03-02T05:51:13;98135.50;;;8.25;76.72
84865;BME280;75122;41.650;25.368;2024-03-02T05:53:38;98102.28;;;8.29;76.59
84865;BME280;75122;41.650;25.368;2024-03-02T05:56:05;98107.50;;;8.34;76.63
84865;BME280;75122;41.650;25.368;2024-03-02T05:58:31;98125.38;;;8.35;77.40
84865;BME280;75122;41.650;25.368;2024-03-02T06:01:23;98123.72;;;8.29;77.72
84865;BME280;75122;41.650;25.368;2024-03-02T06:03:56;98123.13;;;8.27;77.63
84865;BME280;75122;41.650;25.368;2024-03-02T06:06:25;98112.78;;;8.39;76.00
84865;BME280;75122;41.650;25.368;2024-03-02T06:08:51;98106.44;;;8.47;76.64
84865;BME280;75122;41.650;25.368;2024-03-02T06:11:19;98097.78;;;8.53;75.41
84865;BME280;75122;41.650;25.368;2024-03-02T06:13:44;98105.59;;;8.58;75.74
84865;BME280;75122;41.650;25.368;2024-03-02T06:16:10;98106.22;;;8.48;76.47
84865;BME280;75122;41.650;25.368;2024-03-02T06:18:35;98105.66;;;8.46;76.04
84865;BME280;75122;41.650;25.368;2024-03-02T06:21:01;98103.75;;;8.53;75.53
84865;BME280;75122;41.650;25.368;2024-03-02T06:23:26;98097.31;;;8.56;76.22
84865;BME280;75122;41.650;25.368;2024-03-02T06:25:52;98094.56;;;8.62;75.60
84865;BME280;75122;41.650;25.368;2024-03-02T06:28:17;98097.75;;;8.24;76.65
84865;BME280;75122;41.650;25.368;2024-03-02T06:30:43;98092.41;;;8.42;76.70
84865;BME280;75122;41.650;25.368;2024-03-02T06:33:09;98108.19;;;8.58;74.72
84865;BME280;75122;41.650;25.368;2024-03-02T06:35:35;98113.78;;;8.66;74.81
84865;BME280;75122;41.650;25.368;2024-03-02T06:38:01;98110.03;;;8.74;74.79
84865;BME280;75122;41.650;25.368;2024-03-02T06:40:27;98109.88;;;8.64;76.92
84865;BME280;75122;41.650;25.368;2024-03-02T06:42:52;98110.03;;;8.74;77.07
84865;BME280;75122;41.650;25.368;2024-03-02T06:45:18;98107.63;;;8.84;75.69
84865;BME280;75122;41.650;25.368;2024-03-02T06:47:43;98108.41;;;8.84;76.87
84865;BME280;75122;41.650;25.368;2024-03-02T06:50:09;98121.88;;;8.86;76.45
84865;BME280;75122;41.650;25.368;2024-03-02T06:52:35;98116.97;;;8.85;77.07
84865;BME280;75122;41.650;25.368;2024-03-02T06:55:00;98121.88;;;8.86;76.60
84865;BME280;75122;41.650;25.368;2024-03-02T06:57:26;98122.97;;;8.90;77.59
84865;BME280;75122;41.650;25.368;2024-03-02T06:59:51;98116.63;;;8.98;76.17
84865;BME280;75122;41.650;25.368;2024-03-02T07:02:20;98106.75;;;8.95;76.49
84865;BME280;75122;41.650;25.368;2024-03-02T07:04:46;98111.47;;;8.98;76.68
84865;BME280;75122;41.650;25.368;2024-03-02T07:07:18;98114.69;;;9.05;76.68
84865;BME280;75122;41.650;25.368;2024-03-02T07:09:46;98117.97;;;9.01;76.78
84865;BME280;75122;41.650;25.368;2024-03-02T07:12:13;98109.03;;;9.08;75.46
84865;BME280;75122;41.650;25.368;2024-03-02T07:14:38;98104.47;;;8.82;77.04
84865;BME280;75122;41.650;25.368;2024-03-02T07:17:33;98108.88;;;8.81;76.23
84865;BME280;75122;41.650;25.368;2024-03-02T07:19:59;98105.44;;;8.93;77.40
84865;BME280;75122;41.650;25.368;2024-03-02T07:22:24;98102.53;;;8.89;76.38
84865;BME280;75122;41.650;25.368;2024-03-02T07:24:50;98107.47;;;9.07;75.72
84865;BME280;75122;41.650;25.368;2024-03-02T07:27:16;98104.41;;;9.10;75.99
84865;BME280;75122;41.650;25.368;2024-03-02T07:29:42;98110.38;;;9.11;75.05
84865;BME280;75122;41.650;25.368;2024-03-02T07:32:09;98113.81;;;9.16;75.84
84865;BME280;75122;41.650;25.368;2024-03-02T07:34:34;98115.94;;;9.03;75.91
84865;BME280;75122;41.650;25.368;2024-03-02T07:37:00;98109.44;;;9.17;77.04
84865;BME280;75122;41.650;25.368;2024-03-02T07:39:26;98113.81;;;9.33;74.49
84865;BME280;75122;41.650;25.368;2024-03-02T07:41:51;98107.88;;;9.16;74.71
84865;BME280;75122;41.650;25.368;2024-03-02T07:44:17;98104.09;;;9.23;76.50
84865;BME280;75122;41.650;25.368;2024-03-02T07:46:44;98105.84;;;9.01;76.14
84865;BME280;75122;41.650;25.368;2024-03-02T07:49:11;98103.78;;;9.03;76.35
84865;BME280;75122;41.650;25.368;2024-03-02T07:51:37;98108.16;;;8.86;78.50
84865;BME280;75122;41.650;25.368;2024-03-02T07:54:02;98108.31;;;8.79;77.92
84865;BME280;75122;41.650;25.368;2024-03-02T07:56:28;98110.03;;;8.46;79.10
84865;BME280;75122;41.650;25.368;2024-03-02T07:58:53;98116.06;;;8.34;79.96
84865;BME280;75122;41.650;25.368;2024-03-02T08:01:19;98116.56;;;8.48;80.47
84865;BME280;75122;41.650;25.368;2024-03-02T08:03:45;98121.22;;;8.34;80.42
84865;BME280;75122;41.650;25.368;2024-03-02T08:06:14;98126.97;;;8.36;79.87
84865;BME280;75122;41.650;25.368;2024-03-02T08:08:40;98128.28;;;8.39;80.91
84865;BME280;75122;41.650;25.368;2024-03-02T08:11:06;98123.88;;;8.51;79.93
84865;BME280;75122;41.650;25.368;2024-03-02T08:13:31;98124.06;;;8.50;78.79
84865;BME280;75122;41.650;25.368;2024-03-02T08:15:57;98123.38;;;8.54;79.35
84865;BME280;75122;41.650;25.368;2024-03-02T08:18:23;98125.69;;;8.67;78.34
84865;BME280;75122;41.650;25.368;2024-03-02T08:20:49;98131.44;;;8.69;78.68
84865;BME280;75122;41.650;25.368;2024-03-02T08:23:14;98131.38;;;8.81;78.84
84865;BME280;75122;41.650;25.368;2024-03-02T08:25:39;98132.06;;;8.76;78.42
84865;BME280;75122;41.650;25.368;2024-03-02T08:28:05;98136.34;;;8.71;79.17
84865;BME280;75122;41.650;25.368;2024-03-02T08:30:31;98146.22;;;8.74;79.14
84865;BME280;75122;41.650;25.368;2024-03-02T08:32:56;98135.16;;;8.62;80.18
84865;BME280;75122;41.650;25.368;2024-03-02T08:35:22;98141.44;;;8.26;80.33
84865;BME280;75122;41.650;25.368;2024-03-02T08:37:48;98142.13;;;8.21;81.90
84865;BME280;75122;41.650;25.368;2024-03-02T08:40:14;98148.59;;;8.07;81.52
84865;BME280;75122;41.650;25.368;2024-03-02T08:42:39;98140.25;;;8.05;82.14
84865;BME280;75122;41.650;25.368;2024-03-02T08:45:06;98137.25;;;8.08;82.38
84865;BME280;75122;41.650;25.368;2024-03-02T08:47:32;98133.22;;;8.01;82.13
84865;BME280;75122;41.650;25.368;2024-03-02T08:49:58;98134.41;;;8.10;81.11
84865;BME280;75122;41.650;25.368;2024-03-02T08:52:24;98144.38;;;8.29;81.42
84865;BME280;75122;41.650;25.368;2024-03-02T08:54:49;98126.97;;;8.36;81.06
84865;BME280;75122;41.650;25.368;2024-03-02T08:57:15;98146.97;;;8.29;81.98
84865;BME280;75122;41.650;25.368;2024-03-02T08:59:40;98137.06;;;8.38;81.72
84865;BME280;75122;41.650;25.368;2024-03-02T09:02:06;98135.09;;;8.57;80.70
84865;BME280;75122;41.650;25.368;2024-03-02T09:04:31;98134.34;;;8.45;80.70
84865;BME280;75122;41.650;25.368;2024-03-02T09:06:57;98139.53;;;8.45;82.37
84865;BME280;75122;41.650;25.368;2024-03-02T09:09:23;98135.94;;;8.34;80.92
84865;BME280;75122;41.650;25.368;2024-03-02T09:11:48;98132.19;;;8.53;81.20
84865;BME280;75122;41.650;25.368;2024-03-02T09:14:14;98135.69;;;8.47;80.79
84865;BME280;75122;41.650;25.368;2024-03-02T09:16:40;98141.44;;;8.66;80.24
84865;BME280;75122;41.650;25.368;2024-03-02T09:19:05;98139.00;;;8.59;81.50
84865;BME280;75122;41.650;25.368;2024-03-02T09:21:31;98134.94;;;8.63;80.70
84865;BME280;75122;41.650;25.368;2024-03-02T09:23:56;98138.97;;;8.87;79.29
84865;BME280;75122;41.650;25.368;2024-03-02T09:26:22;98138.56;;;8.79;80.90
84865;BME280;75122;41.650;25.368;2024-03-02T09:28:50;98137.56;;;8.80;79.24
84865;BME280;75122;41.650;25.368;2024-03-02T09:31:15;98140.09;;;8.63;82.36
84865;BME280;75122;41.650;25.368;2024-03-02T09:33:41;98127.03;;;8.70;81.34
84865;BME280;75122;41.650;25.368;2024-03-02T09:36:16;98144.03;;;8.66;81.96
84865;BME280;75122;41.650;25.368;2024-03-02T09:38:42;98142.00;;;8.39;82.32
84865;BME280;75122;41.650;25.368;2024-03-02T09:41:08;98149.34;;;8.31;83.42
84865;BME280;75122;41.650;25.368;2024-03-02T09:43:33;98146.53;;;8.21;82.20
84865;BME280;75122;41.650;25.368;2024-03-02T09:45:59;98141.59;;;8.31;83.38
84865;BME280;75122;41.650;25.368;2024-03-02T09:48:24;98139.78;;;8.31;83.70
84865;BME280;75122;41.650;25.368;2024-03-02T09:50:50;98137.63;;;8.28;82.88
84865;BME280;75122;41.650;25.368;2024-03-02T09:53:15;98133.94;;;8.36;83.62
84865;BME280;75122;41.650;25.368;2024-03-02T09:55:46;98138.22;;;8.30;83.12
84865;BME280;75122;41.650;25.368;2024-03-02T09:58:11;98141.03;;;8.29;82.34
84865;BME280;75122;41.650;25.368;2024-03-02T10:00:37;98136.84;;;8.39;82.32
84865;BME280;75122;41.650;25.368;2024-03-02T10:03:03;98132.94;;;8.54;82.86
84865;BME280;75122;41.650;25.368;2024-03-02T10:05:30;98134.84;;;8.58;81.21
84865;BME280;75122;41.650;25.368;2024-03-02T10:08:00;98129.63;;;8.86;80.46
84865;BME280;75122;41.650;25.368;2024-03-02T10:10:54;98126.19;;;9.14;79.92
84865;BME280;75122;41.650;25.368;2024-03-02T10:13:24;98116.31;;;9.28;79.82
84865;BME280;75122;41.650;25.368;2024-03-02T10:15:50;98112.72;;;9.46;78.86
84865;BME280;75122;41.650;25.368;2024-03-02T10:18:26;98114.63;;;9.55;79.11
84865;BME280;75122;41.650;25.368;2024-03-02T10:20:52;98110.84;;;9.63;78.82
84865;BME280;75122;41.650;25.368;2024-03-02T10:23:17;98112.34;;;9.59;80.09
84865;BME280;75122;41.650;25.368;2024-03-02T10:25:44;98107.81;;;9.66;78.24
84865;BME280;75122;41.650;25.368;2024-03-02T10:28:10;98101.28;;;9.63;78.18
84865;BME280;75122;41.650;25.368;2024-03-02T10:30:36;98106.00;;;9.88;79.10
84865;BME280;75122;41.650;25.368;2024-03-02T10:33:03;98101.69;;;9.94;78.25
84865;BME280;75122;41.650;25.368;2024-03-02T10:35:29;98101.63;;;10.10;77.48
84865;BME280;75122;41.650;25.368;2024-03-02T10:37:58;98093.84;;;10.10;76.85
84865;BME280;75122;41.650;25.368;2024-03-02T10:40:24;98097.69;;;9.86;78.68
84865;BME280;75122;41.650;25.368;2024-03-02T10:42:50;98096.66;;;9.87;79.44
84865;BME280;75122;41.650;25.368;2024-03-02T10:45:20;98094.00;;;10.04;77.80
84865;BME280;75122;41.650;25.368;2024-03-02T10:47:48;98091.53;;;10.14;77.79
84865;BME280;75122;41.650;25.368;2024-03-02T10:50:13;98072.91;;;9.95;78.89
84865;BME280;75122;41.650;25.368;2024-03-02T10:52:39;98071.50;;;9.82;79.10
84865;BME280;75122;41.650;25.368;2024-03-02T10:55:05;98081.72;;;9.72;79.26
84865;BME280;75122;41.650;25.368;2024-03-02T10:57:41;98079.06;;;9.89;78.95
84865;BME280;75122;41.650;25.368;2024-03-02T11:00:08;98082.94;;;9.87;79.79
84865;BME280;75122;41.650;25.368;2024-03-02T11:02:42;98074.13;;;9.88;79.93
84865;BME280;75122;41.650;25.368;2024-03-02T11:05:10;98074.25;;;9.98;79.81
84865;BME280;75122;41.650;25.368;2024-03-02T11:07:38;98067.25;;;10.20;80.13
84865;BME280;75122;41.650;25.368;2024-03-02T11:10:05;98075.00;;;10.42;78.49
84865;BME280;75122;41.650;25.368;2024-03-02T11:12:39;98071.78;;;10.29;78.62
84865;BME280;75122;41.650;25.368;2024-03-02T11:15:17;98067.22;;;10.42;78.66
84865;BME280;75122;41.650;25.368;2024-03-02T11:17:43;98071.97;;;10.23;79.26
84865;BME280;75122;41.650;25.368;2024-03-02T11:20:10;98075.22;;;10.35;78.01
84865;BME280;75122;41.650;25.368;2024-03-02T11:22:36;98074.38;;;10.29;76.64
84865;BME280;75122;41.650;25.368;2024-03-02T11:25:05;98073.25;;;10.47;77.89
84865;BME280;75122;41.650;25.368;2024-03-02T11:32:57;98066.91;;;10.92;75.16
84865;BME280;75122;41.650;25.368;2024-03-02T11:35:24;98061.03;;;11.06;76.43
84865;BME280;75122;41.650;25.368;2024-03-02T11:37:51;98067.38;;;10.89;75.91
84865;BME280;75122;41.650;25.368;2024-03-02T11:40:22;98061.56;;;10.76;76.78
84865;BME280;75122;41.650;25.368;2024-03-02T11:42:48;98051.91;;;10.72;75.80
84865;BME280;75122;41.650;25.368;2024-03-02T11:45:16;98057.16;;;10.77;75.90
84865;BME280;75122;41.650;25.368;2024-03-02T11:47:50;98057.09;;;10.67;77.68
84865;BME280;75122;41.650;25.368;2024-03-02T11:50:15;98054.09;;;10.85;77.47
84865;BME280;75122;41.650;25.368;2024-03-02T11:52:41;98052.66;;;10.99;76.21
84865;BME280;75122;41.650;25.368;2024-03-02T11:55:08;98055.06;;;10.74;77.25
84865;BME280;75122;41.650;25.368;2024-03-02T11:57:35;98052.06;;;10.87;77.58
84865;BME280;75122;41.650;25.368;2024-03-02T12:00:00;98050.91;;;10.73;76.76
84865;BME280;75122;41.650;25.368;2024-03-02T12:02:28;98046.44;;;10.63;77.44
84865;BME280;75122;41.650;25.368;2024-03-02T12:04:54;98043.44;;;10.82;78.20
84865;BME280;75122;41.650;25.368;2024-03-02T12:07:23;98049.63;;;10.75;77.38
84865;BME280;75122;41.650;25.368;2024-03-02T12:10:01;98055.47;;;10.61;76.87
84865;BME280;75122;41.650;25.368;2024-03-02T12:12:30;98047.84;;;10.49;77.33
84865;BME280;75122;41.650;25.368;2024-03-02T12:14:56;98045.25;;;10.49;76.92
84865;BME280;75122;41.650;25.368;2024-03-02T12:17:22;98043.00;;;10.58;77.82
84865;BME280;75122;41.650;25.368;2024-03-02T12:19:48;98042.25;;;10.62;76.99
84865;BME280;75122;41.650;25.368;2024-03-02T12:22:14;98039.78;;;10.77;76.07
84865;BME280;75122;41.650;25.368;2024-03-02T12:24:41;98036.22;;;10.89;77.29
84865;BME280;75122;41.650;25.368;2024-03-02T12:27:07;98044.19;;;10.77;77.44
84865;BME280;75122;41.650;25.368;2024-03-02T12:29:32;98047.00;;;10.70;76.91
84865;BME280;75122;41.650;25.368;2024-03-02T12:31:59;98047.34;;;10.52;77.73
84865;BME280;75122;41.650;25.368;2024-03-02T12:34:25;98047.19;;;10.10;80.44
84865;BME280;75122;41.650;25.368;2024-03-02T12:36:51;98046.63;;;10.08;80.19
84865;BME280;75122;41.650;25.368;2024-03-02T12:39:19;98042.91;;;10.21;81.47
84865;BME280;75122;41.650;25.368;2024-03-02T12:41:49;98044.19;;;10.18;80.61
84865;BME280;75122;41.650;25.368;2024-03-02T12:44:19;98041.22;;;10.10;80.42
84865;BME280;75122;41.650;25.368;2024-03-02T12:46:46;98040.13;;;10.27;80.08
84865;BME280;75122;41.650;25.368;2024-03-02T12:49:13;98041.00;;;9.90;79.72
84865;BME280;75122;41.650;25.368;2024-03-02T12:51:41;98042.16;;;9.77;81.99
84865;BME280;75122;41.650;25.368;2024-03-02T12:54:10;98039.56;;;9.99;80.92
84865;BME280;75122;41.650;25.368;2024-03-02T12:56:37;98041.75;;;10.12;80.34
84865;BME280;75122;41.650;25.368;2024-03-02T12:59:03;98040.66;;;10.29;79.50
84865;BME280;75122;41.650;25.368;2024-03-02T13:01:29;98043.16;;;10.46;80.08
84865;BME280;75122;41.650;25.368;2024-03-02T13:03:57;98038.03;;;10.56;79.27